Bailey Switch, Kentucky
Current Conditions -  °F | °C
As of 9:53 AM on Wednesday 22 Oct 2014 (Local Time) from KLOZ Reporting Station
Broken Clouds Broken Clouds  
Wind Chill: 43°   Ceiling: 1400
Heat Index: 47°   Visibility: 10mi
Dew Point: 39°   Wind: 8mph
Humidity: 74%   Direction: 10°N
Pressure: 30.25"   Gusts: NA
Location:  36.865°N, 83.9507°W
Report Text: KLOZ 221353Z AUTO 01007KT 10SM BKN014 BKN037 08/04 A3025 RMK AO2 SLP243 T00830039
Loading
Personal Weather Stations






























Interactive Weather Map New forecast layout! Learn more

10-Day Weather Forecast

Advertisements
Track Severe Weather on mobile